CheckWX is a tool to help pilots better visualize weather data.  It is not intended as a substitute for an official pre-flight weather briefing.

16:55:13 UTC

LTFC TAF
Süleyman Demirel International Airport
Isparta, Turkey
TAF AMD LTFC 181240Z 1812/1912 34020KT 9999 -TSRA FEW020CB BKN030 BECMG 1813/1815 34009KT BECMG 1816/1820 NSW FEW025CB BECMG 1908/1912 20014KT -TSRA FEW020CB BKN030

Jun-18@
12:00 UTC

Jun-18 @ 12:00 UTC

Jun-18@
13:00 UTC

Jun-18 @ 13:00 UTC

TAF AMD LTFC 181240Z 1812/1912 34020KT 9999 -TSRA FEW020CB BKN030

Expired

Wind
  • 340° at 20 KTS
Conditions
Light Thunderstorm, Light Rain
Cloud Levels
  • Few at 2,000' AGL
  • Broken at 3,000' AGL

Jun-18@
13:00 UTC

Jun-18 @ 13:00 UTC

Jun-18@
16:00 UTC

Jun-18 @ 16:00 UTC

BECMG 1813/1815 34009KT

Expired

Wind
  • 340° at 9 KTS
Conditions
Light Thunderstorm, Light Rain
Cloud Levels
  • Few at 2,000' AGL
  • Broken at 3,000' AGL

Jun-18@
16:00 UTC

Jun-18 @ 16:00 UTC

Jun-19@
08:00 UTC

Jun-19 @ 08:00 UTC

BECMG 1816/1820 NSW FEW025CB

Becoming

Becoming Conditions expected by Tue, Jun 18, 2019 @ 20:00 UTC

Wind
  • 340° at 9 KTS
Conditions
No significant weather
Cloud Levels
  • Few at 2,500' AGL

Jun-19@
08:00 UTC

Jun-19 @ 08:00 UTC

Jun-19@
12:00 UTC

Jun-19 @ 12:00 UTC

BECMG 1908/1912 20014KT -TSRA FEW020CB BKN030

Becoming

Becoming Conditions expected by Wed, Jun 19, 2019 @ 12:00 UTC

Wind
  • 200° at 14 KTS
Conditions
Light Thunderstorm, Light Rain
Cloud Levels
  • Few at 2,000' AGL
  • Broken at 3,000' AGL